sensor_id;sensor_type;location;lat;lon;timestamp;temperature;humidity
14095;DHT22;18096;48.142;16.290;2022-11-25T00:01:18;8.70;99.90
14095;DHT22;18096;48.142;16.290;2022-11-25T00:03:44;8.70;99.90
14095;DHT22;18096;48.142;16.290;2022-11-25T00:06:14;8.70;99.90
14095;DHT22;18096;48.142;16.290;2022-11-25T00:08:42;8.70;99.90
14095;DHT22;18096;48.142;16.290;2022-11-25T00:11:09;8.70;99.90
14095;DHT22;18096;48.142;16.290;2022-11-25T00:13:35;8.70;99.90
14095;DHT22;18096;48.142;16.290;2022-11-25T00:16:07;8.70;99.90
14095;DHT22;18096;48.142;16.290;2022-11-25T00:18:33;8.70;99.90
14095;DHT22;18096;48.142;16.290;2022-11-25T00:21:07;8.70;99.90
14095;DHT22;18096;48.142;16.290;2022-11-25T00:23:33;8.70;99.90
14095;DHT22;18096;48.142;16.290;2022-11-25T00:26:13;8.70;99.90
14095;DHT22;18096;48.142;16.290;2022-11-25T00:28:40;8.70;99.90
14095;DHT22;18096;48.142;16.290;2022-11-25T00:31:13;8.70;99.90
14095;DHT22;18096;48.142;16.290;2022-11-25T00:33:39;8.70;99.90
14095;DHT22;18096;48.142;16.290;2022-11-25T00:36:06;8.70;99.90
14095;DHT22;18096;48.142;16.290;2022-11-25T00:38:35;8.70;99.90
14095;DHT22;18096;48.142;16.290;2022-11-25T00:41:01;8.70;99.90
14095;DHT22;18096;48.142;16.290;2022-11-25T00:43:45;8.70;99.90
14095;DHT22;18096;48.142;16.290;2022-11-25T00:46:29;8.70;99.90
14095;DHT22;18096;48.142;16.290;2022-11-25T00:48:55;8.70;99.90
14095;DHT22;18096;48.142;16.290;2022-11-25T00:51:20;8.70;99.90
14095;DHT22;18096;48.142;16.290;2022-11-25T00:53:46;8.70;99.90
14095;DHT22;18096;48.142;16.290;2022-11-25T00:56:12;8.70;99.90
14095;DHT22;18096;48.142;16.290;2022-11-25T00:58:40;8.70;99.90
14095;DHT22;18096;48.142;16.290;2022-11-25T01:01:07;8.70;99.90
14095;DHT22;18096;48.142;16.290;2022-11-25T01:03:33;8.70;99.90
14095;DHT22;18096;48.142;16.290;2022-11-25T01:06:05;8.70;99.90
14095;DHT22;18096;48.142;16.290;2022-11-25T01:08:33;8.70;99.90
14095;DHT22;18096;48.142;16.290;2022-11-25T01:11:07;8.70;99.90
14095;DHT22;18096;48.142;16.290;2022-11-25T01:13:33;8.70;99.90
14095;DHT22;18096;48.142;16.290;2022-11-25T01:16:03;8.70;99.90
14095;DHT22;18096;48.142;16.290;2022-11-25T01:18:29;8.70;99.90
14095;DHT22;18096;48.142;16.290;2022-11-25T01:20:55;8.70;99.90
14095;DHT22;18096;48.142;16.290;2022-11-25T01:23:28;8.70;99.90
14095;DHT22;18096;48.142;16.290;2022-11-25T01:25:54;8.70;99.90
14095;DHT22;18096;48.142;16.290;2022-11-25T01:28:19;8.70;99.90
14095;DHT22;18096;48.142;16.290;2022-11-25T01:30:45;8.70;99.90
14095;DHT22;18096;48.142;16.290;2022-11-25T01:33:11;8.70;99.90
14095;DHT22;18096;48.142;16.290;2022-11-25T01:35:36;8.70;99.90
14095;DHT22;18096;48.142;16.290;2022-11-25T01:38:03;8.60;99.90
14095;DHT22;18096;48.142;16.290;2022-11-25T01:40:28;8.60;99.90
14095;DHT22;18096;48.142;16.290;2022-11-25T01:42:54;8.60;99.90
14095;DHT22;18096;48.142;16.290;2022-11-25T01:47:57;8.50;99.90
14095;DHT22;18096;48.142;16.290;2022-11-25T01:50:26;8.50;99.90
14095;DHT22;18096;48.142;16.290;2022-11-25T01:52:54;8.50;99.90
14095;DHT22;18096;48.142;16.290;2022-11-25T01:55:27;8.50;99.90
14095;DHT22;18096;48.142;16.290;2022-11-25T01:58:09;8.50;99.90
14095;DHT22;18096;48.142;16.290;2022-11-25T02:00:36;8.50;99.90
14095;DHT22;18096;48.142;16.290;2022-11-25T02:03:03;8.40;99.90
14095;DHT22;18096;48.142;16.290;2022-11-25T02:08:03;8.50;99.90
14095;DHT22;18096;48.142;16.290;2022-11-25T02:10:31;8.40;99.90
14095;DHT22;18096;48.142;16.290;2022-11-25T02:12:57;8.40;99.90
14095;DHT22;18096;48.142;16.290;2022-11-25T02:15:24;8.40;99.90
14095;DHT22;18096;48.142;16.290;2022-11-25T02:17:50;8.40;99.90
14095;DHT22;18096;48.142;16.290;2022-11-25T02:20:18;8.40;99.90
14095;DHT22;18096;48.142;16.290;2022-11-25T02:25:31;8.40;99.90
14095;DHT22;18096;48.142;16.290;2022-11-25T02:28:18;8.40;99.90
14095;DHT22;18096;48.142;16.290;2022-11-25T02:30:46;8.40;99.90
14095;DHT22;18096;48.142;16.290;2022-11-25T02:33:12;8.40;99.90
14095;DHT22;18096;48.142;16.290;2022-11-25T02:35:39;8.40;99.90
14095;DHT22;18096;48.142;16.290;2022-11-25T02:40:51;8.40;99.90
14095;DHT22;18096;48.142;16.290;2022-11-25T02:43:17;8.40;99.90
14095;DHT22;18096;48.142;16.290;2022-11-25T02:48:55;8.40;99.90
14095;DHT22;18096;48.142;16.290;2022-11-25T02:51:23;8.30;99.90
14095;DHT22;18096;48.142;16.290;2022-11-25T02:53:50;8.30;99.90
14095;DHT22;18096;48.142;16.290;2022-11-25T02:56:17;8.30;99.90
14095;DHT22;18096;48.142;16.290;2022-11-25T02:58:43;8.30;99.90
14095;DHT22;18096;48.142;16.290;2022-11-25T03:01:08;8.30;99.90
14095;DHT22;18096;48.142;16.290;2022-11-25T03:03:35;8.30;99.90
14095;DHT22;18096;48.142;16.290;2022-11-25T03:06:01;8.30;99.90
14095;DHT22;18096;48.142;16.290;2022-11-25T03:08:26;8.30;99.90
14095;DHT22;18096;48.142;16.290;2022-11-25T03:10:52;8.30;99.90
14095;DHT22;18096;48.142;16.290;2022-11-25T03:13:18;8.30;99.90
14095;DHT22;18096;48.142;16.290;2022-11-25T03:15:43;8.30;99.90
14095;DHT22;18096;48.142;16.290;2022-11-25T03:18:09;8.30;99.90
14095;DHT22;18096;48.142;16.290;2022-11-25T03:20:35;8.30;99.90
14095;DHT22;18096;48.142;16.290;2022-11-25T03:23:02;8.30;99.90
14095;DHT22;18096;48.142;16.290;2022-11-25T03:25:28;8.20;99.90
14095;DHT22;18096;48.142;16.290;2022-11-25T03:27:53;8.20;99.90
14095;DHT22;18096;48.142;16.290;2022-11-25T03:30:21;8.20;99.90
14095;DHT22;18096;48.142;16.290;2022-11-25T03:32:48;8.20;99.90
14095;DHT22;18096;48.142;16.290;2022-11-25T03:35:14;8.20;99.90
14095;DHT22;18096;48.142;16.290;2022-11-25T03:37:40;8.30;99.90
14095;DHT22;18096;48.142;16.290;2022-11-25T03:40:08;8.30;99.90
14095;DHT22;18096;48.142;16.290;2022-11-25T03:42:34;8.30;99.90
14095;DHT22;18096;48.142;16.290;2022-11-25T03:45:00;8.30;99.90
14095;DHT22;18096;48.142;16.290;2022-11-25T03:47:26;8.20;99.90
14095;DHT22;18096;48.142;16.290;2022-11-25T03:49:51;8.20;99.90
14095;DHT22;18096;48.142;16.290;2022-11-25T03:52:17;8.20;99.90
14095;DHT22;18096;48.142;16.290;2022-11-25T03:54:43;8.20;99.90
14095;DHT22;18096;48.142;16.290;2022-11-25T03:57:09;8.20;99.90
14095;DHT22;18096;48.142;16.290;2022-11-25T03:59:34;8.20;99.90
14095;DHT22;18096;48.142;16.290;2022-11-25T04:02:00;8.20;99.90
14095;DHT22;18096;48.142;16.290;2022-11-25T04:04:26;8.10;99.90
14095;DHT22;18096;48.142;16.290;2022-11-25T04:06:52;8.10;99.90
14095;DHT22;18096;48.142;16.290;2022-11-25T04:09:17;8.00;99.90
14095;DHT22;18096;48.142;16.290;2022-11-25T04:11:43;8.00;99.90
14095;DHT22;18096;48.142;16.290;2022-11-25T04:14:28;7.90;99.90
14095;DHT22;18096;48.142;16.290;2022-11-25T04:16:54;7.90;99.90
14095;DHT22;18096;48.142;16.290;2022-11-25T04:19:20;7.80;99.90
14095;DHT22;18096;48.142;16.290;2022-11-25T04:21:46;7.80;99.90
14095;DHT22;18096;48.142;16.290;2022-11-25T04:24:11;7.70;99.90
14095;DHT22;18096;48.142;16.290;2022-11-25T04:26:37;7.60;99.90
14095;DHT22;18096;48.142;16.290;2022-11-25T04:29:03;7.60;99.90
14095;DHT22;18096;48.142;16.290;2022-11-25T04:31:28;7.50;99.90
14095;DHT22;18096;48.142;16.290;2022-11-25T04:33:54;7.40;99.90
14095;DHT22;18096;48.142;16.290;2022-11-25T04:36:19;7.40;99.90
14095;DHT22;18096;48.142;16.290;2022-11-25T04:38:45;7.40;99.90
14095;DHT22;18096;48.142;16.290;2022-11-25T04:41:11;7.30;99.90
14095;DHT22;18096;48.142;16.290;2022-11-25T04:43:36;7.30;99.90
14095;DHT22;18096;48.142;16.290;2022-11-25T04:46:02;7.20;99.90
14095;DHT22;18096;48.142;16.290;2022-11-25T04:48:28;7.20;99.90
14095;DHT22;18096;48.142;16.290;2022-11-25T04:50:54;7.20;99.90
14095;DHT22;18096;48.142;16.290;2022-11-25T04:53:20;7.20;99.90
14095;DHT22;18096;48.142;16.290;2022-11-25T04:55:46;7.20;99.90
14095;DHT22;18096;48.142;16.290;2022-11-25T04:58:12;7.20;99.90
14095;DHT22;18096;48.142;16.290;2022-11-25T05:00:38;7.20;99.90
14095;DHT22;18096;48.142;16.290;2022-11-25T05:03:03;7.10;99.90
14095;DHT22;18096;48.142;16.290;2022-11-25T05:05:29;7.20;99.90
14095;DHT22;18096;48.142;16.290;2022-11-25T05:07:55;7.10;99.90
14095;DHT22;18096;48.142;16.290;2022-11-25T05:10:21;7.10;99.90
14095;DHT22;18096;48.142;16.290;2022-11-25T05:12:47;7.10;99.90
14095;DHT22;18096;48.142;16.290;2022-11-25T05:15:13;7.10;99.90
14095;DHT22;18096;48.142;16.290;2022-11-25T05:17:39;7.00;99.90
14095;DHT22;18096;48.142;16.290;2022-11-25T05:20:05;7.00;99.90
14095;DHT22;18096;48.142;16.290;2022-11-25T05:22:32;6.90;99.90
14095;DHT22;18096;48.142;16.290;2022-11-25T05:24:59;6.90;99.90
14095;DHT22;18096;48.142;16.290;2022-11-25T05:27:25;6.80;99.90
14095;DHT22;18096;48.142;16.290;2022-11-25T05:29:51;6.80;99.90
14095;DHT22;18096;48.142;16.290;2022-11-25T05:32:17;6.70;99.90
14095;DHT22;18096;48.142;16.290;2022-11-25T05:34:43;6.70;99.90
14095;DHT22;18096;48.142;16.290;2022-11-25T05:37:10;6.70;99.90
14095;DHT22;18096;48.142;16.290;2022-11-25T05:39:37;6.70;99.90
14095;DHT22;18096;48.142;16.290;2022-11-25T05:42:02;6.60;99.90
14095;DHT22;18096;48.142;16.290;2022-11-25T05:44:28;6.60;99.90
14095;DHT22;18096;48.142;16.290;2022-11-25T05:46:54;6.60;99.90
14095;DHT22;18096;48.142;16.290;2022-11-25T05:49:19;6.50;99.90
14095;DHT22;18096;48.142;16.290;2022-11-25T05:51:45;6.50;99.90
14095;DHT22;18096;48.142;16.290;2022-11-25T05:54:12;6.40;99.90
14095;DHT22;18096;48.142;16.290;2022-11-25T05:56:37;6.30;99.90
14095;DHT22;18096;48.142;16.290;2022-11-25T05:59:03;6.30;99.90
14095;DHT22;18096;48.142;16.290;2022-11-25T06:01:29;6.20;99.90
14095;DHT22;18096;48.142;16.290;2022-11-25T06:03:59;6.10;99.90
14095;DHT22;18096;48.142;16.290;2022-11-25T06:06:24;6.10;99.90
14095;DHT22;18096;48.142;16.290;2022-11-25T06:08:50;6.00;99.90
14095;DHT22;18096;48.142;16.290;2022-11-25T06:11:16;5.90;99.90
14095;DHT22;18096;48.142;16.290;2022-11-25T06:13:43;5.90;99.90
14095;DHT22;18096;48.142;16.290;2022-11-25T06:16:17;5.80;99.90
14095;DHT22;18096;48.142;16.290;2022-11-25T06:18:43;5.80;99.90
14095;DHT22;18096;48.142;16.290;2022-11-25T06:21:10;5.80;99.90
14095;DHT22;18096;48.142;16.290;2022-11-25T06:23:36;5.70;99.90
14095;DHT22;18096;48.142;16.290;2022-11-25T06:26:19;5.70;99.90
14095;DHT22;18096;48.142;16.290;2022-11-25T06:28:45;5.60;99.90
14095;DHT22;18096;48.142;16.290;2022-11-25T06:31:20;5.60;99.90
14095;DHT22;18096;48.142;16.290;2022-11-25T06:33:47;5.60;99.90
14095;DHT22;18096;48.142;16.290;2022-11-25T06:36:14;5.60;99.90
14095;DHT22;18096;48.142;16.290;2022-11-25T06:38:43;5.60;99.90
14095;DHT22;18096;48.142;16.290;2022-11-25T06:41:09;5.60;99.90
14095;DHT22;18096;48.142;16.290;2022-11-25T06:43:35;5.60;99.90
14095;DHT22;18096;48.142;16.290;2022-11-25T06:46:02;5.70;99.90
14095;DHT22;18096;48.142;16.290;2022-11-25T06:48:28;5.60;99.90
14095;DHT22;18096;48.142;16.290;2022-11-25T06:50:55;5.60;99.90
14095;DHT22;18096;48.142;16.290;2022-11-25T06:53:22;5.60;99.90
14095;DHT22;18096;48.142;16.290;2022-11-25T06:55:47;5.70;99.90
14095;DHT22;18096;48.142;16.290;2022-11-25T06:58:13;5.70;99.90
14095;DHT22;18096;48.142;16.290;2022-11-25T07:00:38;5.70;99.90
14095;DHT22;18096;48.142;16.290;2022-11-25T07:03:04;5.80;99.90
14095;DHT22;18096;48.142;16.290;2022-11-25T07:05:30;5.80;99.90
14095;DHT22;18096;48.142;16.290;2022-11-25T07:07:55;5.80;99.90
14095;DHT22;18096;48.142;16.290;2022-11-25T07:10:22;5.90;99.90
14095;DHT22;18096;48.142;16.290;2022-11-25T07:12:47;5.90;99.90
14095;DHT22;18096;48.142;16.290;2022-11-25T07:15:13;5.90;99.90
14095;DHT22;18096;48.142;16.290;2022-11-25T07:17:39;5.90;99.90
14095;DHT22;18096;48.142;16.290;2022-11-25T07:20:05;6.00;99.90
14095;DHT22;18096;48.142;16.290;2022-11-25T07:22:31;6.00;99.90
14095;DHT22;18096;48.142;16.290;2022-11-25T07:24:56;6.00;99.90
14095;DHT22;18096;48.142;16.290;2022-11-25T07:27:22;6.00;99.90
14095;DHT22;18096;48.142;16.290;2022-11-25T07:29:47;6.00;99.90
14095;DHT22;18096;48.142;16.290;2022-11-25T07:32:13;6.10;99.90
14095;DHT22;18096;48.142;16.290;2022-11-25T07:34:39;6.10;99.90
14095;DHT22;18096;48.142;16.290;2022-11-25T07:37:04;6.10;99.90
14095;DHT22;18096;48.142;16.290;2022-11-25T07:39:30;6.20;99.90
14095;DHT22;18096;48.142;16.290;2022-11-25T07:41:56;6.30;99.90
14095;DHT22;18096;48.142;16.290;2022-11-25T07:44:21;6.40;99.90
14095;DHT22;18096;48.142;16.290;2022-11-25T07:46:49;6.50;99.90
14095;DHT22;18096;48.142;16.290;2022-11-25T07:49:17;6.60;99.90
14095;DHT22;18096;48.142;16.290;2022-11-25T07:51:48;6.60;99.90
14095;DHT22;18096;48.142;16.290;2022-11-25T07:54:14;6.60;99.90
14095;DHT22;18096;48.142;16.290;2022-11-25T07:56:41;6.60;99.90
14095;DHT22;18096;48.142;16.290;2022-11-25T07:59:14;6.60;99.90
14095;DHT22;18096;48.142;16.290;2022-11-25T08:01:40;6.60;99.90
14095;DHT22;18096;48.142;16.290;2022-11-25T08:04:08;6.60;99.90
14095;DHT22;18096;48.142;16.290;2022-11-25T08:06:41;6.60;99.90
14095;DHT22;18096;48.142;16.290;2022-11-25T08:09:08;6.60;99.90
14095;DHT22;18096;48.142;16.290;2022-11-25T08:11:35;6.60;99.90
14095;DHT22;18096;48.142;16.290;2022-11-25T08:14:01;6.60;99.90
14095;DHT22;18096;48.142;16.290;2022-11-25T08:16:28;6.70;99.90
14095;DHT22;18096;48.142;16.290;2022-11-25T08:18:59;6.70;99.90
14095;DHT22;18096;48.142;16.290;2022-11-25T08:21:25;6.80;99.90
14095;DHT22;18096;48.142;16.290;2022-11-25T08:23:51;6.90;99.90
14095;DHT22;18096;48.142;16.290;2022-11-25T08:26:29;6.90;99.90
14095;DHT22;18096;48.142;16.290;2022-11-25T08:28:58;7.00;99.90
14095;DHT22;18096;48.142;16.290;2022-11-25T08:31:30;7.10;99.90
14095;DHT22;18096;48.142;16.290;2022-11-25T08:33:57;7.20;99.90
14095;DHT22;18096;48.142;16.290;2022-11-25T08:36:24;7.30;99.90
14095;DHT22;18096;48.142;16.290;2022-11-25T08:38:51;7.40;99.90
14095;DHT22;18096;48.142;16.290;2022-11-25T08:41:24;7.40;99.90
14095;DHT22;18096;48.142;16.290;2022-11-25T08:43:50;7.50;99.90
14095;DHT22;18096;48.142;16.290;2022-11-25T08:46:20;7.60;99.90
14095;DHT22;18096;48.142;16.290;2022-11-25T08:48:46;7.60;99.90
14095;DHT22;18096;48.142;16.290;2022-11-25T08:51:21;7.70;99.90
14095;DHT22;18096;48.142;16.290;2022-11-25T08:53:47;7.80;99.90
14095;DHT22;18096;48.142;16.290;2022-11-25T08:56:15;7.90;99.90
14095;DHT22;18096;48.142;16.290;2022-11-25T08:58:41;7.90;99.90
14095;DHT22;18096;48.142;16.290;2022-11-25T09:01:07;8.00;99.90
14095;DHT22;18096;48.142;16.290;2022-11-25T09:03:35;8.00;99.90
14095;DHT22;18096;48.142;16.290;2022-11-25T09:06:01;8.10;99.90
14095;DHT22;18096;48.142;16.290;2022-11-25T09:08:27;8.10;99.90
14095;DHT22;18096;48.142;16.290;2022-11-25T09:10:52;8.20;99.90
14095;DHT22;18096;48.142;16.290;2022-11-25T09:13:18;8.20;99.90
14095;DHT22;18096;48.142;16.290;2022-11-25T09:15:44;8.20;99.90
14095;DHT22;18096;48.142;16.290;2022-11-25T09:18:10;8.30;99.90
14095;DHT22;18096;48.142;16.290;2022-11-25T09:20:39;8.30;99.90
14095;DHT22;18096;48.142;16.290;2022-11-25T09:23:06;8.40;99.90
14095;DHT22;18096;48.142;16.290;2022-11-25T09:25:32;8.50;99.90
14095;DHT22;18096;48.142;16.290;2022-11-25T09:27:58;8.50;99.90
14095;DHT22;18096;48.142;16.290;2022-11-25T09:30:24;8.50;99.90
14095;DHT22;18096;48.142;16.290;2022-11-25T09:32:52;8.60;99.90
14095;DHT22;18096;48.142;16.290;2022-11-25T09:35:19;8.60;99.90
14095;DHT22;18096;48.142;16.290;2022-11-25T09:37:45;8.70;99.90
14095;DHT22;18096;48.142;16.290;2022-11-25T09:46:13;8.80;99.90
14095;DHT22;18096;48.142;16.290;2022-11-25T09:54:40;8.80;99.90
14095;DHT22;18096;48.142;16.290;2022-11-25T09:57:26;8.90;99.90
14095;DHT22;18096;48.142;16.290;2022-11-25T10:00:34;8.90;99.90
14095;DHT22;18096;48.142;16.290;2022-11-25T10:05:51;8.90;99.90
14095;DHT22;18096;48.142;16.290;2022-11-25T10:08:29;8.90;99.90
14095;DHT22;18096;48.142;16.290;2022-11-25T10:11:02;9.00;99.90
14095;DHT22;18096;48.142;16.290;2022-11-25T10:22:16;9.10;99.90
14095;DHT22;18096;48.142;16.290;2022-11-25T10:24:44;9.10;99.90
14095;DHT22;18096;48.142;16.290;2022-11-25T10:27:18;9.20;99.90
14095;DHT22;18096;48.142;16.290;2022-11-25T10:29:53;9.20;99.90
14095;DHT22;18096;48.142;16.290;2022-11-25T10:32:25;9.20;99.90
14095;DHT22;18096;48.142;16.290;2022-11-25T10:34:57;9.30;99.90
14095;DHT22;18096;48.142;16.290;2022-11-25T10:37:30;9.30;99.90
14095;DHT22;18096;48.142;16.290;2022-11-25T10:39:58;9.40;99.90
14095;DHT22;18096;48.142;16.290;2022-11-25T10:42:27;9.30;99.90
14095;DHT22;18096;48.142;16.290;2022-11-25T10:44:53;9.40;99.90
14095;DHT22;18096;48.142;16.290;2022-11-25T10:52:36;9.50;99.90
14095;DHT22;18096;48.142;16.290;2022-11-25T10:55:24;9.50;99.90
14095;DHT22;18096;48.142;16.290;2022-11-25T10:57:54;9.50;99.90
14095;DHT22;18096;48.142;16.290;2022-11-25T11:00:35;9.60;99.90
14095;DHT22;18096;48.142;16.290;2022-11-25T11:03:18;9.60;99.90
14095;DHT22;18096;48.142;16.290;2022-11-25T11:05:48;9.70;99.90
14095;DHT22;18096;48.142;16.290;2022-11-25T11:08:21;9.70;99.90
14095;DHT22;18096;48.142;16.290;2022-11-25T11:13:36;9.70;99.90
14095;DHT22;18096;48.142;16.290;2022-11-25T11:16:02;9.80;99.90
14095;DHT22;18096;48.142;16.290;2022-11-25T11:18:49;9.80;99.90
14095;DHT22;18096;48.142;16.290;2022-11-25T11:23:55;9.80;99.90
14095;DHT22;18096;48.142;16.290;2022-11-25T11:26:33;9.80;99.90
14095;DHT22;18096;48.142;16.290;2022-11-25T11:29:20;9.80;99.90
14095;DHT22;18096;48.142;16.290;2022-11-25T11:31:48;9.80;99.90
14095;DHT22;18096;48.142;16.290;2022-11-25T11:40:24;9.90;99.90
14095;DHT22;18096;48.142;16.290;2022-11-25T11:48:20;10.00;99.90
14095;DHT22;18096;48.142;16.290;2022-11-25T11:51:00;10.00;99.90
14095;DHT22;18096;48.142;16.290;2022-11-25T11:53:33;10.00;99.90
14095;DHT22;18096;48.142;16.290;2022-11-25T12:04:34;10.00;99.90
14095;DHT22;18096;48.142;16.290;2022-11-25T12:07:12;10.00;99.90
14095;DHT22;18096;48.142;16.290;2022-11-25T12:09:51;10.00;99.90
14095;DHT22;18096;48.142;16.290;2022-11-25T12:12:18;10.00;99.90
14095;DHT22;18096;48.142;16.290;2022-11-25T12:14:52;10.00;99.90
14095;DHT22;18096;48.142;16.290;2022-11-25T12:17:46;10.00;99.90
14095;DHT22;18096;48.142;16.290;2022-11-25T12:20:17;10.10;99.90
14095;DHT22;18096;48.142;16.290;2022-11-25T12:22:57;10.10;99.90
14095;DHT22;18096;48.142;16.290;2022-11-25T12:25:35;10.10;99.90
14095;DHT22;18096;48.142;16.290;2022-11-25T12:28:20;10.10;99.90
14095;DHT22;18096;48.142;16.290;2022-11-25T12:34:45;10.10;99.90
14095;DHT22;18096;48.142;16.290;2022-11-25T12:37:17;10.10;99.90
14095;DHT22;18096;48.142;16.290;2022-11-25T12:39:57;10.10;99.90
14095;DHT22;18096;48.142;16.290;2022-11-25T12:42:27;10.10;99.90
14095;DHT22;18096;48.142;16.290;2022-11-25T12:47:26;10.10;99.90
14095;DHT22;18096;48.142;16.290;2022-11-25T12:49:53;10.20;99.90
14095;DHT22;18096;48.142;16.290;2022-11-25T13:00:52;10.20;99.90
14095;DHT22;18096;48.142;16.290;2022-11-25T13:17:38;10.20;99.90
14095;DHT22;18096;48.142;16.290;2022-11-25T13:25:36;10.20;99.90
14095;DHT22;18096;48.142;16.290;2022-11-25T13:28:04;10.20;99.90
14095;DHT22;18096;48.142;16.290;2022-11-25T13:41:02;10.20;99.90
14095;DHT22;18096;48.142;16.290;2022-11-25T13:43:28;10.10;99.90
14095;DHT22;18096;48.142;16.290;2022-11-25T13:45:54;10.10;99.90
14095;DHT22;18096;48.142;16.290;2022-11-25T13:48:27;10.10;99.90
14095;DHT22;18096;48.142;16.290;2022-11-25T13:53:39;10.10;99.90
14095;DHT22;18096;48.142;16.290;2022-11-25T13:56:35;10.00;99.90
14095;DHT22;18096;48.142;16.290;2022-11-25T14:01:37;10.10;99.90
14095;DHT22;18096;48.142;16.290;2022-11-25T14:04:07;10.00;99.90
14095;DHT22;18096;48.142;16.290;2022-11-25T14:06:52;10.10;99.90
14095;DHT22;18096;48.142;16.290;2022-11-25T14:25:50;9.90;99.90
14095;DHT22;18096;48.142;16.290;2022-11-25T14:30:49;9.90;99.90
14095;DHT22;18096;48.142;16.290;2022-11-25T14:33:19;9.90;99.90
14095;DHT22;18096;48.142;16.290;2022-11-25T14:35:53;9.90;99.90
14095;DHT22;18096;48.142;16.290;2022-11-25T14:38:26;9.80;99.90
14095;DHT22;18096;48.142;16.290;2022-11-25T14:40:59;9.80;99.90
14095;DHT22;18096;48.142;16.290;2022-11-25T14:43:29;9.70;99.90
14095;DHT22;18096;48.142;16.290;2022-11-25T14:46:20;9.70;99.90
14095;DHT22;18096;48.142;16.290;2022-11-25T14:48:55;9.60;99.90
14095;DHT22;18096;48.142;16.290;2022-11-25T14:51:22;9.50;99.90
14095;DHT22;18096;48.142;16.290;2022-11-25T14:53:49;9.40;99.90
14095;DHT22;18096;48.142;16.290;2022-11-25T14:56:21;9.40;99.90
14095;DHT22;18096;48.142;16.290;2022-11-25T14:58:50;9.40;99.90
14095;DHT22;18096;48.142;16.290;2022-11-25T15:03:50;9.30;99.90
14095;DHT22;18096;48.142;16.290;2022-11-25T15:06:28;9.20;99.90
14095;DHT22;18096;48.142;16.290;2022-11-25T15:08:57;9.20;99.90
14095;DHT22;18096;48.142;16.290;2022-11-25T15:11:28;9.10;99.90
14095;DHT22;18096;48.142;16.290;2022-11-25T15:14:01;9.10;99.90
14095;DHT22;18096;48.142;16.290;2022-11-25T15:16:40;9.00;99.90
14095;DHT22;18096;48.142;16.290;2022-11-25T15:19:19;9.00;99.90
14095;DHT22;18096;48.142;16.290;2022-11-25T15:21:50;8.90;99.90
14095;DHT22;18096;48.142;16.290;2022-11-25T15:27:00;8.70;99.90
14095;DHT22;18096;48.142;16.290;2022-11-25T15:29:28;8.70;99.90
14095;DHT22;18096;48.142;16.290;2022-11-25T15:31:55;8.60;99.90
14095;DHT22;18096;48.142;16.290;2022-11-25T15:34:22;8.60;99.90
14095;DHT22;18096;48.142;16.290;2022-11-25T15:36:48;8.50;99.90
14095;DHT22;18096;48.142;16.290;2022-11-25T15:39:24;8.40;99.90
14095;DHT22;18096;48.142;16.290;2022-11-25T15:44:31;8.30;99.90
14095;DHT22;18096;48.142;16.290;2022-11-25T15:47:06;8.20;99.90
14095;DHT22;18096;48.142;16.290;2022-11-25T15:49:40;8.10;99.90
14095;DHT22;18096;48.142;16.290;2022-11-25T15:52:15;8.10;99.90
14095;DHT22;18096;48.142;16.290;2022-11-25T15:54:44;8.00;99.90
14095;DHT22;18096;48.142;16.290;2022-11-25T15:57:34;8.00;99.90
14095;DHT22;18096;48.142;16.290;2022-11-25T16:00:12;7.90;99.90
14095;DHT22;18096;48.142;16.290;2022-11-25T16:18:56;7.50;99.90
14095;DHT22;18096;48.142;16.290;2022-11-25T16:21:49;7.50;99.90
14095;DHT22;18096;48.142;16.290;2022-11-25T16:24:37;7.50;99.90
14095;DHT22;18096;48.142;16.290;2022-11-25T16:27:13;7.40;99.90
14095;DHT22;18096;48.142;16.290;2022-11-25T16:30:06;7.40;99.90
14095;DHT22;18096;48.142;16.290;2022-11-25T16:32:33;7.40;99.90
14095;DHT22;18096;48.142;16.290;2022-11-25T16:35:18;7.40;99.90
14095;DHT22;18096;48.142;16.290;2022-11-25T16:37:48;7.40;99.90
14095;DHT22;18096;48.142;16.290;2022-11-25T16:40:15;7.30;99.90
14095;DHT22;18096;48.142;16.290;2022-11-25T16:42:47;7.30;99.90
14095;DHT22;18096;48.142;16.290;2022-11-25T16:45:22;7.40;99.90
14095;DHT22;18096;48.142;16.290;2022-11-25T16:47:48;7.40;99.90
14095;DHT22;18096;48.142;16.290;2022-11-25T16:50:16;7.30;99.90
14095;DHT22;18096;48.142;16.290;2022-11-25T16:52:42;7.30;99.90
14095;DHT22;18096;48.142;16.290;2022-11-25T16:55:08;7.40;99.90
14095;DHT22;18096;48.142;16.290;2022-11-25T16:57:35;7.40;99.90
14095;DHT22;18096;48.142;16.290;2022-11-25T17:00:04;7.40;99.90
14095;DHT22;18096;48.142;16.290;2022-11-25T17:02:33;7.40;99.90
14095;DHT22;18096;48.142;16.290;2022-11-25T17:07:59;7.30;99.90
14095;DHT22;18096;48.142;16.290;2022-11-25T17:10:25;7.30;99.90
14095;DHT22;18096;48.142;16.290;2022-11-25T17:12:51;7.40;99.90
14095;DHT22;18096;48.142;16.290;2022-11-25T17:15:19;7.40;99.90
14095;DHT22;18096;48.142;16.290;2022-11-25T17:17:49;7.40;99.90
14095;DHT22;18096;48.142;16.290;2022-11-25T17:20:20;7.40;99.90
14095;DHT22;18096;48.142;16.290;2022-11-25T17:22:49;7.40;99.90
14095;DHT22;18096;48.142;16.290;2022-11-25T17:25:15;7.40;99.90
14095;DHT22;18096;48.142;16.290;2022-11-25T17:27:41;7.40;99.90
14095;DHT22;18096;48.142;16.290;2022-11-25T17:30:25;7.40;99.90
14095;DHT22;18096;48.142;16.290;2022-11-25T17:32:57;7.30;99.90
14095;DHT22;18096;48.142;16.290;2022-11-25T17:35:23;7.30;99.90
14095;DHT22;18096;48.142;16.290;2022-11-25T17:37:49;7.30;99.90
14095;DHT22;18096;48.142;16.290;2022-11-25T17:40:15;7.30;99.90
14095;DHT22;18096;48.142;16.290;2022-11-25T17:42:41;7.30;99.90
14095;DHT22;18096;48.142;16.290;2022-11-25T17:45:12;7.20;99.90
14095;DHT22;18096;48.142;16.290;2022-11-25T17:47:39;7.20;99.90
14095;DHT22;18096;48.142;16.290;2022-11-25T17:50:22;7.20;99.90
14095;DHT22;18096;48.142;16.290;2022-11-25T17:52:50;7.20;99.90
14095;DHT22;18096;48.142;16.290;2022-11-25T17:55:17;7.20;99.90
14095;DHT22;18096;48.142;16.290;2022-11-25T17:57:47;7.20;99.90
14095;DHT22;18096;48.142;16.290;2022-11-25T18:00:16;7.20;99.90
14095;DHT22;18096;48.142;16.290;2022-11-25T18:02:42;7.20;99.90
14095;DHT22;18096;48.142;16.290;2022-11-25T18:05:13;7.20;99.90
14095;DHT22;18096;48.142;16.290;2022-11-25T18:07:41;7.20;99.90
14095;DHT22;18096;48.142;16.290;2022-11-25T18:10:12;7.20;99.90
14095;DHT22;18096;48.142;16.290;2022-11-25T18:12:39;7.10;99.90
14095;DHT22;18096;48.142;16.290;2022-11-25T18:15:05;7.20;99.90
14095;DHT22;18096;48.142;16.290;2022-11-25T18:17:34;7.20;99.90
14095;DHT22;18096;48.142;16.290;2022-11-25T18:20:17;7.20;99.90
14095;DHT22;18096;48.142;16.290;2022-11-25T18:22:44;7.20;99.90
14095;DHT22;18096;48.142;16.290;2022-11-25T18:25:15;7.30;99.90
14095;DHT22;18096;48.142;16.290;2022-11-25T18:27:42;7.20;99.90